sensor_id;sensor_type;location;lat;lon;timestamp;P1;durP1;ratioP1;P2;durP2;ratioP2
36799;SDS011;22752;51.960;5.886;2022-07-21T00:01:08;12.00;;;9.98;;
36799;SDS011;22752;51.960;5.886;2022-07-21T00:03:34;8.88;;;7.18;;
36799;SDS011;22752;51.960;5.886;2022-07-21T00:05:59;9.32;;;8.10;;
36799;SDS011;22752;51.960;5.886;2022-07-21T00:08:25;10.00;;;8.73;;
36799;SDS011;22752;51.960;5.886;2022-07-21T00:10:51;10.40;;;9.30;;
36799;SDS011;22752;51.960;5.886;2022-07-21T00:13:17;10.75;;;9.50;;
36799;SDS011;22752;51.960;5.886;2022-07-21T00:15:43;9.98;;;8.68;;
36799;SDS011;22752;51.960;5.886;2022-07-21T00:18:09;11.25;;;10.05;;
36799;SDS011;22752;51.960;5.886;2022-07-21T00:20:35;11.55;;;9.02;;
36799;SDS011;22752;51.960;5.886;2022-07-21T00:23:01;10.90;;;9.25;;
36799;SDS011;22752;51.960;5.886;2022-07-21T00:25:27;9.55;;;8.55;;
36799;SDS011;22752;51.960;5.886;2022-07-21T00:27:53;9.00;;;8.07;;
36799;SDS011;22752;51.960;5.886;2022-07-21T00:30:19;11.93;;;9.57;;
36799;SDS011;22752;51.960;5.886;2022-07-21T00:32:45;11.63;;;10.05;;
36799;SDS011;22752;51.960;5.886;2022-07-21T00:35:11;10.68;;;9.57;;
36799;SDS011;22752;51.960;5.886;2022-07-21T00:37:37;12.95;;;11.55;;
36799;SDS011;22752;51.960;5.886;2022-07-21T00:40:04;11.63;;;9.73;;
36799;SDS011;22752;51.960;5.886;2022-07-21T00:42:31;17.38;;;11.82;;
36799;SDS011;22752;51.960;5.886;2022-07-21T00:44:58;13.18;;;10.88;;
36799;SDS011;22752;51.960;5.886;2022-07-21T00:47:25;15.65;;;11.88;;
36799;SDS011;22752;51.960;5.886;2022-07-21T00:49:54;13.52;;;11.85;;
36799;SDS011;22752;51.960;5.886;2022-07-21T00:52:20;13.88;;;12.43;;
36799;SDS011;22752;51.960;5.886;2022-07-21T00:54:47;13.82;;;11.98;;
36799;SDS011;22752;51.960;5.886;2022-07-21T00:57:12;15.15;;;11.93;;
36799;SDS011;22752;51.960;5.886;2022-07-21T00:59:39;15.07;;;13.52;;
36799;SDS011;22752;51.960;5.886;2022-07-21T01:02:06;13.95;;;12.55;;
36799;SDS011;22752;51.960;5.886;2022-07-21T01:04:32;14.32;;;12.65;;
36799;SDS011;22752;51.960;5.886;2022-07-21T01:06:59;13.90;;;12.18;;
36799;SDS011;22752;51.960;5.886;2022-07-21T01:09:26;12.43;;;11.02;;
36799;SDS011;22752;51.960;5.886;2022-07-21T01:11:52;14.35;;;11.32;;
36799;SDS011;22752;51.960;5.886;2022-07-21T01:14:18;13.25;;;11.38;;
36799;SDS011;22752;51.960;5.886;2022-07-21T01:16:44;13.50;;;12.05;;
36799;SDS011;22752;51.960;5.886;2022-07-21T01:19:10;13.15;;;11.70;;
36799;SDS011;22752;51.960;5.886;2022-07-21T01:21:37;14.18;;;11.88;;
36799;SDS011;22752;51.960;5.886;2022-07-21T01:24:04;11.52;;;10.32;;
36799;SDS011;22752;51.960;5.886;2022-07-21T01:26:31;14.65;;;11.70;;
36799;SDS011;22752;51.960;5.886;2022-07-21T01:29:05;11.90;;;10.30;;
36799;SDS011;22752;51.960;5.886;2022-07-21T01:31:30;12.43;;;11.13;;
36799;SDS011;22752;51.960;5.886;2022-07-21T01:33:56;12.90;;;9.98;;
36799;SDS011;22752;51.960;5.886;2022-07-21T01:36:22;13.43;;;10.80;;
36799;SDS011;22752;51.960;5.886;2022-07-21T01:38:47;11.55;;;10.35;;
36799;SDS011;22752;51.960;5.886;2022-07-21T01:41:31;11.70;;;10.45;;
36799;SDS011;22752;51.960;5.886;2022-07-21T01:44:02;13.25;;;11.82;;
36799;SDS011;22752;51.960;5.886;2022-07-21T01:46:34;12.25;;;10.63;;
36799;SDS011;22752;51.960;5.886;2022-07-21T01:49:02;15.15;;;10.23;;
36799;SDS011;22752;51.960;5.886;2022-07-21T01:51:29;12.63;;;10.15;;
36799;SDS011;22752;51.960;5.886;2022-07-21T01:53:54;12.80;;;11.50;;
36799;SDS011;22752;51.960;5.886;2022-07-21T01:56:21;15.13;;;11.63;;
36799;SDS011;22752;51.960;5.886;2022-07-21T01:58:49;14.20;;;11.63;;
36799;SDS011;22752;51.960;5.886;2022-07-21T02:01:17;14.75;;;12.50;;
36799;SDS011;22752;51.960;5.886;2022-07-21T02:03:43;13.38;;;11.95;;
36799;SDS011;22752;51.960;5.886;2022-07-21T02:06:10;13.25;;;11.95;;
36799;SDS011;22752;51.960;5.886;2022-07-21T02:08:37;15.43;;;12.57;;
36799;SDS011;22752;51.960;5.886;2022-07-21T02:11:04;14.75;;;12.02;;
36799;SDS011;22752;51.960;5.886;2022-07-21T02:13:30;14.25;;;12.75;;
36799;SDS011;22752;51.960;5.886;2022-07-21T02:15:56;13.98;;;12.57;;
36799;SDS011;22752;51.960;5.886;2022-07-21T02:18:22;17.85;;;14.27;;
36799;SDS011;22752;51.960;5.886;2022-07-21T02:20:48;15.13;;;13.48;;
36799;SDS011;22752;51.960;5.886;2022-07-21T02:23:15;16.15;;;13.55;;
36799;SDS011;22752;51.960;5.886;2022-07-21T02:25:41;17.23;;;13.80;;
36799;SDS011;22752;51.960;5.886;2022-07-21T02:28:07;18.15;;;15.95;;
36799;SDS011;22752;51.960;5.886;2022-07-21T02:30:32;16.33;;;14.57;;
36799;SDS011;22752;51.960;5.886;2022-07-21T02:32:58;17.70;;;15.10;;
36799;SDS011;22752;51.960;5.886;2022-07-21T02:35:24;17.85;;;15.85;;
36799;SDS011;22752;51.960;5.886;2022-07-21T02:37:49;17.88;;;14.52;;
36799;SDS011;22752;51.960;5.886;2022-07-21T02:40:15;18.88;;;15.15;;
36799;SDS011;22752;51.960;5.886;2022-07-21T02:42:41;18.40;;;16.58;;
36799;SDS011;22752;51.960;5.886;2022-07-21T02:45:07;17.63;;;15.77;;
36799;SDS011;22752;51.960;5.886;2022-07-21T02:47:46;17.48;;;14.73;;
36799;SDS011;22752;51.960;5.886;2022-07-21T02:50:20;17.25;;;14.35;;
36799;SDS011;22752;51.960;5.886;2022-07-21T02:52:48;18.10;;;14.43;;
36799;SDS011;22752;51.960;5.886;2022-07-21T02:55:14;17.13;;;15.27;;
36799;SDS011;22752;51.960;5.886;2022-07-21T02:57:40;17.50;;;15.73;;
36799;SDS011;22752;51.960;5.886;2022-07-21T03:00:07;18.23;;;16.40;;
36799;SDS011;22752;51.960;5.886;2022-07-21T03:02:34;20.33;;;18.15;;
36799;SDS011;22752;51.960;5.886;2022-07-21T03:05:00;17.15;;;15.45;;
36799;SDS011;22752;51.960;5.886;2022-07-21T03:07:25;19.42;;;16.92;;
36799;SDS011;22752;51.960;5.886;2022-07-21T03:09:51;17.88;;;15.98;;
36799;SDS011;22752;51.960;5.886;2022-07-21T03:12:17;18.98;;;16.83;;
36799;SDS011;22752;51.960;5.886;2022-07-21T03:14:43;16.13;;;14.43;;
36799;SDS011;22752;51.960;5.886;2022-07-21T03:17:09;23.35;;;18.05;;
36799;SDS011;22752;51.960;5.886;2022-07-21T03:19:34;19.88;;;17.77;;
36799;SDS011;22752;51.960;5.886;2022-07-21T03:22:00;18.45;;;16.42;;
36799;SDS011;22752;51.960;5.886;2022-07-21T03:24:25;21.85;;;18.90;;
36799;SDS011;22752;51.960;5.886;2022-07-21T03:26:51;25.48;;;19.35;;
36799;SDS011;22752;51.960;5.886;2022-07-21T03:29:17;26.85;;;19.27;;
36799;SDS011;22752;51.960;5.886;2022-07-21T03:31:43;19.15;;;17.27;;
36799;SDS011;22752;51.960;5.886;2022-07-21T03:34:08;19.92;;;15.77;;
36799;SDS011;22752;51.960;5.886;2022-07-21T03:36:34;18.17;;;16.25;;
36799;SDS011;22752;51.960;5.886;2022-07-21T03:38:59;19.00;;;17.00;;
36799;SDS011;22752;51.960;5.886;2022-07-21T03:41:25;22.35;;;18.88;;
36799;SDS011;22752;51.960;5.886;2022-07-21T03:43:51;21.13;;;17.27;;
36799;SDS011;22752;51.960;5.886;2022-07-21T03:46:17;18.50;;;16.50;;
36799;SDS011;22752;51.960;5.886;2022-07-21T03:48:42;20.35;;;16.27;;
36799;SDS011;22752;51.960;5.886;2022-07-21T03:51:08;23.63;;;16.45;;
36799;SDS011;22752;51.960;5.886;2022-07-21T03:53:34;21.75;;;18.60;;
36799;SDS011;22752;51.960;5.886;2022-07-21T03:56:00;18.73;;;16.80;;
36799;SDS011;22752;51.960;5.886;2022-07-21T03:58:26;20.65;;;18.40;;
36799;SDS011;22752;51.960;5.886;2022-07-21T04:00:51;22.45;;;19.17;;
36799;SDS011;22752;51.960;5.886;2022-07-21T04:03:17;21.35;;;19.08;;
36799;SDS011;22752;51.960;5.886;2022-07-21T04:05:43;21.73;;;18.25;;
36799;SDS011;22752;51.960;5.886;2022-07-21T04:08:09;19.77;;;17.67;;
36799;SDS011;22752;51.960;5.886;2022-07-21T04:10:38;21.25;;;18.90;;
36799;SDS011;22752;51.960;5.886;2022-07-21T04:13:06;21.55;;;18.27;;
36799;SDS011;22752;51.960;5.886;2022-07-21T04:15:33;20.10;;;17.95;;
36799;SDS011;22752;51.960;5.886;2022-07-21T04:17:59;21.65;;;19.10;;
36799;SDS011;22752;51.960;5.886;2022-07-21T04:20:25;23.17;;;19.65;;
36799;SDS011;22752;51.960;5.886;2022-07-21T04:22:51;21.05;;;18.85;;
36799;SDS011;22752;51.960;5.886;2022-07-21T04:25:17;22.30;;;19.67;;
36799;SDS011;22752;51.960;5.886;2022-07-21T04:27:44;19.48;;;17.48;;
36799;SDS011;22752;51.960;5.886;2022-07-21T04:30:12;22.55;;;20.10;;
36799;SDS011;22752;51.960;5.886;2022-07-21T04:32:39;21.42;;;19.13;;
36799;SDS011;22752;51.960;5.886;2022-07-21T04:35:05;20.33;;;18.13;;
36799;SDS011;22752;51.960;5.886;2022-07-21T04:37:32;23.70;;;21.20;;
36799;SDS011;22752;51.960;5.886;2022-07-21T04:39:58;25.15;;;19.88;;
36799;SDS011;22752;51.960;5.886;2022-07-21T04:42:24;21.27;;;17.80;;
36799;SDS011;22752;51.960;5.886;2022-07-21T04:44:49;23.85;;;20.23;;
36799;SDS011;22752;51.960;5.886;2022-07-21T04:47:15;32.35;;;20.63;;
36799;SDS011;22752;51.960;5.886;2022-07-21T04:49:41;31.75;;;23.35;;
36799;SDS011;22752;51.960;5.886;2022-07-21T04:52:07;26.95;;;20.30;;
36799;SDS011;22752;51.960;5.886;2022-07-21T04:54:33;30.20;;;23.95;;
36799;SDS011;22752;51.960;5.886;2022-07-21T04:56:59;26.27;;;21.77;;
36799;SDS011;22752;51.960;5.886;2022-07-21T04:59:27;26.25;;;22.60;;
36799;SDS011;22752;51.960;5.886;2022-07-21T05:01:54;25.65;;;22.10;;
36799;SDS011;22752;51.960;5.886;2022-07-21T05:04:20;25.98;;;22.15;;
36799;SDS011;22752;51.960;5.886;2022-07-21T05:06:45;26.65;;;22.70;;
36799;SDS011;22752;51.960;5.886;2022-07-21T05:09:11;25.42;;;22.35;;
36799;SDS011;22752;51.960;5.886;2022-07-21T05:11:37;27.58;;;23.63;;
36799;SDS011;22752;51.960;5.886;2022-07-21T05:14:02;25.90;;;19.55;;
36799;SDS011;22752;51.960;5.886;2022-07-21T05:16:29;24.15;;;20.27;;
36799;SDS011;22752;51.960;5.886;2022-07-21T05:18:54;24.98;;;21.15;;
36799;SDS011;22752;51.960;5.886;2022-07-21T05:21:20;22.60;;;19.45;;
36799;SDS011;22752;51.960;5.886;2022-07-21T05:23:46;30.13;;;25.63;;
36799;SDS011;22752;51.960;5.886;2022-07-21T05:26:11;30.63;;;23.50;;
36799;SDS011;22752;51.960;5.886;2022-07-21T05:28:38;26.98;;;22.88;;
36799;SDS011;22752;51.960;5.886;2022-07-21T05:31:03;27.48;;;21.33;;
36799;SDS011;22752;51.960;5.886;2022-07-21T05:33:29;28.92;;;24.98;;
36799;SDS011;22752;51.960;5.886;2022-07-21T05:35:55;31.08;;;24.23;;
36799;SDS011;22752;51.960;5.886;2022-07-21T05:38:20;25.95;;;23.00;;
36799;SDS011;22752;51.960;5.886;2022-07-21T05:40:47;30.58;;;25.83;;
36799;SDS011;22752;51.960;5.886;2022-07-21T05:43:12;30.05;;;22.98;;
36799;SDS011;22752;51.960;5.886;2022-07-21T05:45:38;36.92;;;28.27;;
36799;SDS011;22752;51.960;5.886;2022-07-21T05:48:04;32.78;;;27.35;;
36799;SDS011;22752;51.960;5.886;2022-07-21T05:50:30;33.55;;;27.75;;
36799;SDS011;22752;51.960;5.886;2022-07-21T05:52:55;31.40;;;27.58;;
36799;SDS011;22752;51.960;5.886;2022-07-21T05:55:21;31.05;;;26.58;;
36799;SDS011;22752;51.960;5.886;2022-07-21T05:57:47;34.25;;;29.77;;
36799;SDS011;22752;51.960;5.886;2022-07-21T06:00:13;38.63;;;30.58;;
36799;SDS011;22752;51.960;5.886;2022-07-21T06:02:40;35.47;;;29.42;;
36799;SDS011;22752;51.960;5.886;2022-07-21T06:05:05;34.75;;;28.33;;
36799;SDS011;22752;51.960;5.886;2022-07-21T06:07:33;32.97;;;26.42;;
36799;SDS011;22752;51.960;5.886;2022-07-21T06:09:59;31.75;;;26.92;;
36799;SDS011;22752;51.960;5.886;2022-07-21T06:12:25;27.02;;;23.83;;
36799;SDS011;22752;51.960;5.886;2022-07-21T06:14:51;26.05;;;23.15;;
36799;SDS011;22752;51.960;5.886;2022-07-21T06:17:17;31.63;;;26.83;;
36799;SDS011;22752;51.960;5.886;2022-07-21T06:19:43;29.17;;;25.20;;
36799;SDS011;22752;51.960;5.886;2022-07-21T06:22:09;30.25;;;23.75;;
36799;SDS011;22752;51.960;5.886;2022-07-21T06:24:34;36.33;;;26.30;;
36799;SDS011;22752;51.960;5.886;2022-07-21T06:27:00;29.98;;;23.95;;
36799;SDS011;22752;51.960;5.886;2022-07-21T06:29:26;31.10;;;23.58;;
36799;SDS011;22752;51.960;5.886;2022-07-21T06:31:51;24.88;;;22.17;;
36799;SDS011;22752;51.960;5.886;2022-07-21T06:34:17;28.38;;;20.88;;
36799;SDS011;22752;51.960;5.886;2022-07-21T06:36:42;25.80;;;20.70;;
36799;SDS011;22752;51.960;5.886;2022-07-21T06:39:08;28.08;;;21.80;;
36799;SDS011;22752;51.960;5.886;2022-07-21T06:41:37;22.40;;;19.17;;
36799;SDS011;22752;51.960;5.886;2022-07-21T06:44:03;28.65;;;22.80;;
36799;SDS011;22752;51.960;5.886;2022-07-21T06:46:30;26.55;;;21.02;;
36799;SDS011;22752;51.960;5.886;2022-07-21T06:48:56;27.42;;;22.55;;
36799;SDS011;22752;51.960;5.886;2022-07-21T06:51:22;27.42;;;22.77;;
36799;SDS011;22752;51.960;5.886;2022-07-21T06:53:48;27.08;;;23.35;;
36799;SDS011;22752;51.960;5.886;2022-07-21T06:56:13;28.08;;;23.27;;
36799;SDS011;22752;51.960;5.886;2022-07-21T06:58:39;27.45;;;23.17;;
36799;SDS011;22752;51.960;5.886;2022-07-21T07:01:05;25.60;;;21.23;;
36799;SDS011;22752;51.960;5.886;2022-07-21T07:03:31;32.05;;;24.60;;
36799;SDS011;22752;51.960;5.886;2022-07-21T07:05:58;29.30;;;24.35;;
36799;SDS011;22752;51.960;5.886;2022-07-21T07:08:23;23.10;;;19.67;;
36799;SDS011;22752;51.960;5.886;2022-07-21T07:10:49;22.23;;;19.63;;
36799;SDS011;22752;51.960;5.886;2022-07-21T07:13:15;23.08;;;19.02;;
36799;SDS011;22752;51.960;5.886;2022-07-21T07:15:42;31.10;;;21.88;;
36799;SDS011;22752;51.960;5.886;2022-07-21T07:18:08;29.30;;;22.70;;
36799;SDS011;22752;51.960;5.886;2022-07-21T07:20:34;27.25;;;19.77;;
36799;SDS011;22752;51.960;5.886;2022-07-21T07:23:00;28.15;;;22.35;;
36799;SDS011;22752;51.960;5.886;2022-07-21T07:25:25;24.48;;;18.77;;
36799;SDS011;22752;51.960;5.886;2022-07-21T07:27:51;22.67;;;18.98;;
36799;SDS011;22752;51.960;5.886;2022-07-21T07:30:19;26.00;;;20.75;;
36799;SDS011;22752;51.960;5.886;2022-07-21T07:32:44;27.10;;;20.60;;
36799;SDS011;22752;51.960;5.886;2022-07-21T07:35:12;27.08;;;21.90;;
36799;SDS011;22752;51.960;5.886;2022-07-21T07:37:39;26.85;;;19.33;;
36799;SDS011;22752;51.960;5.886;2022-07-21T07:40:06;24.92;;;19.98;;
36799;SDS011;22752;51.960;5.886;2022-07-21T07:42:34;23.70;;;17.23;;
36799;SDS011;22752;51.960;5.886;2022-07-21T07:45:00;26.65;;;20.17;;
36799;SDS011;22752;51.960;5.886;2022-07-21T07:47:26;30.92;;;21.83;;
36799;SDS011;22752;51.960;5.886;2022-07-21T07:49:52;32.42;;;21.58;;
36799;SDS011;22752;51.960;5.886;2022-07-21T07:52:19;32.08;;;23.13;;
36799;SDS011;22752;51.960;5.886;2022-07-21T07:54:45;25.55;;;18.90;;
36799;SDS011;22752;51.960;5.886;2022-07-21T07:57:11;32.15;;;23.35;;
36799;SDS011;22752;51.960;5.886;2022-07-21T07:59:36;31.13;;;21.70;;
36799;SDS011;22752;51.960;5.886;2022-07-21T08:02:02;33.35;;;23.55;;
36799;SDS011;22752;51.960;5.886;2022-07-21T08:04:28;32.95;;;22.90;;
36799;SDS011;22752;51.960;5.886;2022-07-21T08:06:53;31.95;;;22.17;;
36799;SDS011;22752;51.960;5.886;2022-07-21T08:09:19;26.98;;;19.77;;
36799;SDS011;22752;51.960;5.886;2022-07-21T08:11:45;28.95;;;20.50;;
36799;SDS011;22752;51.960;5.886;2022-07-21T08:14:12;24.05;;;18.95;;
36799;SDS011;22752;51.960;5.886;2022-07-21T08:16:38;29.92;;;23.15;;
36799;SDS011;22752;51.960;5.886;2022-07-21T08:19:04;25.05;;;20.58;;
36799;SDS011;22752;51.960;5.886;2022-07-21T08:21:30;25.63;;;19.65;;
36799;SDS011;22752;51.960;5.886;2022-07-21T08:23:57;25.35;;;18.83;;
36799;SDS011;22752;51.960;5.886;2022-07-21T08:26:23;23.40;;;18.42;;
36799;SDS011;22752;51.960;5.886;2022-07-21T08:28:50;22.73;;;18.58;;
36799;SDS011;22752;51.960;5.886;2022-07-21T08:31:17;27.50;;;19.95;;
36799;SDS011;22752;51.960;5.886;2022-07-21T08:33:43;24.35;;;19.73;;
36799;SDS011;22752;51.960;5.886;2022-07-21T08:36:08;23.17;;;14.95;;
36799;SDS011;22752;51.960;5.886;2022-07-21T08:38:35;27.20;;;18.38;;
36799;SDS011;22752;51.960;5.886;2022-07-21T08:41:00;24.20;;;16.80;;
36799;SDS011;22752;51.960;5.886;2022-07-21T08:43:26;25.15;;;18.33;;
36799;SDS011;22752;51.960;5.886;2022-07-21T08:45:53;28.63;;;16.98;;
36799;SDS011;22752;51.960;5.886;2022-07-21T08:48:22;28.60;;;20.02;;
36799;SDS011;22752;51.960;5.886;2022-07-21T08:50:49;24.88;;;19.00;;
36799;SDS011;22752;51.960;5.886;2022-07-21T08:53:15;26.88;;;17.95;;
36799;SDS011;22752;51.960;5.886;2022-07-21T08:55:40;29.90;;;20.80;;
36799;SDS011;22752;51.960;5.886;2022-07-21T08:58:10;34.58;;;20.70;;
36799;SDS011;22752;51.960;5.886;2022-07-21T09:00:37;30.92;;;22.73;;
36799;SDS011;22752;51.960;5.886;2022-07-21T09:03:12;26.45;;;18.92;;
36799;SDS011;22752;51.960;5.886;2022-07-21T09:08:35;30.55;;;19.50;;
36799;SDS011;22752;51.960;5.886;2022-07-21T09:11:19;33.90;;;22.58;;
36799;SDS011;22752;51.960;5.886;2022-07-21T09:16:38;30.33;;;22.75;;
36799;SDS011;22752;51.960;5.886;2022-07-21T09:19:03;26.50;;;20.15;;
36799;SDS011;22752;51.960;5.886;2022-07-21T09:21:30;33.53;;;19.90;;
36799;SDS011;22752;51.960;5.886;2022-07-21T09:27:00;22.73;;;16.70;;
36799;SDS011;22752;51.960;5.886;2022-07-21T09:29:27;18.77;;;13.05;;
36799;SDS011;22752;51.960;5.886;2022-07-21T09:32:13;18.00;;;14.30;;
36799;SDS011;22752;51.960;5.886;2022-07-21T09:34:47;14.30;;;11.32;;
36799;SDS011;22752;51.960;5.886;2022-07-21T09:37:15;16.20;;;11.80;;
36799;SDS011;22752;51.960;5.886;2022-07-21T09:39:42;17.27;;;11.93;;
36799;SDS011;22752;51.960;5.886;2022-07-21T09:42:17;15.80;;;10.75;;
36799;SDS011;22752;51.960;5.886;2022-07-21T09:44:58;14.55;;;10.30;;
36799;SDS011;22752;51.960;5.886;2022-07-21T09:47:35;12.75;;;9.90;;
36799;SDS011;22752;51.960;5.886;2022-07-21T09:50:03;16.15;;;10.93;;
36799;SDS011;22752;51.960;5.886;2022-07-21T09:52:31;17.23;;;11.50;;
36799;SDS011;22752;51.960;5.886;2022-07-21T09:54:59;13.73;;;10.27;;
36799;SDS011;22752;51.960;5.886;2022-07-21T09:57:36;15.18;;;9.95;;
36799;SDS011;22752;51.960;5.886;2022-07-21T10:00:06;10.68;;;8.43;;
36799;SDS011;22752;51.960;5.886;2022-07-21T10:02:35;14.25;;;7.72;;
36799;SDS011;22752;51.960;5.886;2022-07-21T10:07:31;9.65;;;7.13;;
36799;SDS011;22752;51.960;5.886;2022-07-21T10:09:58;10.57;;;7.70;;
36799;SDS011;22752;51.960;5.886;2022-07-21T10:12:24;7.03;;;6.25;;
36799;SDS011;22752;51.960;5.886;2022-07-21T10:14:51;8.02;;;6.65;;
36799;SDS011;22752;51.960;5.886;2022-07-21T10:17:18;7.95;;;6.57;;
36799;SDS011;22752;51.960;5.886;2022-07-21T10:19:48;8.80;;;6.63;;
36799;SDS011;22752;51.960;5.886;2022-07-21T10:22:49;8.13;;;6.70;;
36799;SDS011;22752;51.960;5.886;2022-07-21T10:25:36;8.80;;;7.63;;
36799;SDS011;22752;51.960;5.886;2022-07-21T10:30:36;9.05;;;7.10;;
36799;SDS011;22752;51.960;5.886;2022-07-21T10:33:13;8.02;;;6.50;;
36799;SDS011;22752;51.960;5.886;2022-07-21T10:35:41;7.63;;;6.82;;
36799;SDS011;22752;51.960;5.886;2022-07-21T10:38:24;8.10;;;6.50;;
36799;SDS011;22752;51.960;5.886;2022-07-21T10:40:54;9.07;;;7.15;;
36799;SDS011;22752;51.960;5.886;2022-07-21T10:45:50;9.75;;;7.20;;
36799;SDS011;22752;51.960;5.886;2022-07-21T10:51:02;8.45;;;6.85;;
36799;SDS011;22752;51.960;5.886;2022-07-21T10:53:35;9.73;;;7.90;;
36799;SDS011;22752;51.960;5.886;2022-07-21T10:56:00;8.70;;;7.80;;
36799;SDS011;22752;51.960;5.886;2022-07-21T10:58:31;8.48;;;7.43;;
36799;SDS011;22752;51.960;5.886;2022-07-21T11:00:58;9.30;;;7.40;;
36799;SDS011;22752;51.960;5.886;2022-07-21T11:08:41;8.25;;;6.53;;
36799;SDS011;22752;51.960;5.886;2022-07-21T11:11:09;5.97;;;5.38;;
36799;SDS011;22752;51.960;5.886;2022-07-21T11:16:21;6.45;;;5.45;;
36799;SDS011;22752;51.960;5.886;2022-07-21T11:18:47;5.75;;;5.13;;
36799;SDS011;22752;51.960;5.886;2022-07-21T11:21:13;9.68;;;4.40;;
36799;SDS011;22752;51.960;5.886;2022-07-21T11:26:15;5.10;;;4.60;;
36799;SDS011;22752;51.960;5.886;2022-07-21T11:28:42;7.15;;;6.18;;
36799;SDS011;22752;51.960;5.886;2022-07-21T11:31:16;5.13;;;4.45;;
36799;SDS011;22752;51.960;5.886;2022-07-21T11:33:46;7.47;;;5.53;;
36799;SDS011;22752;51.960;5.886;2022-07-21T11:39:04;10.48;;;6.03;;
36799;SDS011;22752;51.960;5.886;2022-07-21T11:41:35;8.38;;;5.47;;
36799;SDS011;22752;51.960;5.886;2022-07-21T11:44:02;6.10;;;5.38;;
36799;SDS011;22752;51.960;5.886;2022-07-21T11:46:44;7.13;;;6.13;;
36799;SDS011;22752;51.960;5.886;2022-07-21T11:49:20;10.98;;;7.78;;
36799;SDS011;22752;51.960;5.886;2022-07-21T11:51:54;8.75;;;7.25;;
36799;SDS011;22752;51.960;5.886;2022-07-21T11:57:02;10.15;;;8.02;;
36799;SDS011;22752;51.960;5.886;2022-07-21T11:59:30;8.38;;;7.03;;
36799;SDS011;22752;51.960;5.886;2022-07-21T12:02:00;12.35;;;9.60;;
36799;SDS011;22752;51.960;5.886;2022-07-21T12:04:30;12.13;;;9.90;;
36799;SDS011;22752;51.960;5.886;2022-07-21T12:07:27;12.00;;;10.55;;
36799;SDS011;22752;51.960;5.886;2022-07-21T12:10:01;12.65;;;9.07;;
36799;SDS011;22752;51.960;5.886;2022-07-21T12:12:36;12.57;;;11.27;;
36799;SDS011;22752;51.960;5.886;2022-07-21T12:17:44;10.55;;;8.50;;
36799;SDS011;22752;51.960;5.886;2022-07-21T12:20:28;10.43;;;7.65;;
36799;SDS011;22752;51.960;5.886;2022-07-21T12:22:56;12.63;;;9.48;;
36799;SDS011;22752;51.960;5.886;2022-07-21T12:28:04;10.77;;;8.40;;
36799;SDS011;22752;51.960;5.886;2022-07-21T12:30:38;11.73;;;9.52;;
36799;SDS011;22752;51.960;5.886;2022-07-21T12:33:09;11.30;;;8.90;;
36799;SDS011;22752;51.960;5.886;2022-07-21T12:35:40;11.40;;;8.68;;
36799;SDS011;22752;51.960;5.886;2022-07-21T12:38:11;9.73;;;8.07;;
36799;SDS011;22752;51.960;5.886;2022-07-21T12:40:48;10.27;;;8.68;;
36799;SDS011;22752;51.960;5.886;2022-07-21T12:43:21;12.25;;;8.43;;
36799;SDS011;22752;51.960;5.886;2022-07-21T12:45:55;9.60;;;7.55;;
36799;SDS011;22752;51.960;5.886;2022-07-21T12:51:02;9.63;;;7.60;;
36799;SDS011;22752;51.960;5.886;2022-07-21T12:53:35;9.77;;;6.75;;
36799;SDS011;22752;51.960;5.886;2022-07-21T12:56:05;11.20;;;8.13;;
36799;SDS011;22752;51.960;5.886;2022-07-21T12:58:31;9.65;;;7.18;;
36799;SDS011;22752;51.960;5.886;2022-07-21T13:00:57;7.25;;;6.07;;
36799;SDS011;22752;51.960;5.886;2022-07-21T13:03:23;8.60;;;7.50;;
36799;SDS011;22752;51.960;5.886;2022-07-21T13:05:48;9.18;;;6.93;;
36799;SDS011;22752;51.960;5.886;2022-07-21T13:08:14;8.30;;;7.10;;
36799;SDS011;22752;51.960;5.886;2022-07-21T13:10:40;8.70;;;7.32;;
36799;SDS011;22752;51.960;5.886;2022-07-21T13:13:06;9.68;;;7.28;;
36799;SDS011;22752;51.960;5.886;2022-07-21T13:15:31;10.13;;;8.27;;
36799;SDS011;22752;51.960;5.886;2022-07-21T13:17:57;8.75;;;7.82;;
36799;SDS011;22752;51.960;5.886;2022-07-21T13:20:23;9.52;;;8.52;;
36799;SDS011;22752;51.960;5.886;2022-07-21T13:22:48;8.73;;;7.28;;
36799;SDS011;22752;51.960;5.886;2022-07-21T13:25:14;9.02;;;8.13;;
36799;SDS011;22752;51.960;5.886;2022-07-21T13:27:39;9.68;;;8.10;;
36799;SDS011;22752;51.960;5.886;2022-07-21T13:30:06;8.15;;;7.32;;
36799;SDS011;22752;51.960;5.886;2022-07-21T13:32:36;9.73;;;8.32;;
36799;SDS011;22752;51.960;5.886;2022-07-21T13:35:02;9.43;;;7.45;;
36799;SDS011;22752;51.960;5.886;2022-07-21T13:37:29;6.80;;;6.20;;
36799;SDS011;22752;51.960;5.886;2022-07-21T13:39:55;8.35;;;6.50;;
36799;SDS011;22752;51.960;5.886;2022-07-21T13:42:20;7.72;;;5.63;;
36799;SDS011;22752;51.960;5.886;2022-07-21T13:44:46;6.72;;;5.07;;
36799;SDS011;22752;51.960;5.886;2022-07-21T13:47:12;7.57;;;5.13;;
36799;SDS011;22752;51.960;5.886;2022-07-21T13:49:37;12.20;;;5.25;;
36799;SDS011;22752;51.960;5.886;2022-07-21T13:52:03;4.75;;;4.35;;
36799;SDS011;22752;51.960;5.886;2022-07-21T13:54:29;5.68;;;5.18;;
36799;SDS011;22752;51.960;5.886;2022-07-21T13:56:55;5.90;;;5.03;;
36799;SDS011;22752;51.960;5.886;2022-07-21T13:59:22;6.90;;;4.35;;
36799;SDS011;22752;51.960;5.886;2022-07-21T14:01:47;6.95;;;3.85;;
36799;SDS011;22752;51.960;5.886;2022-07-21T14:04:13;5.05;;;4.28;;
36799;SDS011;22752;51.960;5.886;2022-07-21T14:06:39;5.28;;;3.55;;
36799;SDS011;22752;51.960;5.886;2022-07-21T14:09:05;4.30;;;3.90;;
36799;SDS011;22752;51.960;5.886;2022-07-21T14:11:31;4.80;;;4.13;;
36799;SDS011;22752;51.960;5.886;2022-07-21T14:13:56;4.82;;;3.92;;
36799;SDS011;22752;51.960;5.886;2022-07-21T14:16:22;5.70;;;3.50;;
36799;SDS011;22752;51.960;5.886;2022-07-21T14:18:47;4.38;;;3.50;;
36799;SDS011;22752;51.960;5.886;2022-07-21T14:21:13;4.53;;;3.40;;
36799;SDS011;22752;51.960;5.886;2022-07-21T14:23:39;3.88;;;3.15;;
36799;SDS011;22752;51.960;5.886;2022-07-21T14:26:05;3.28;;;2.90;;
36799;SDS011;22752;51.960;5.886;2022-07-21T14:28:30;4.68;;;3.60;;
36799;SDS011;22752;51.960;5.886;2022-07-21T14:30:56;5.75;;;2.55;;
36799;SDS011;22752;51.960;5.886;2022-07-21T14:33:22;4.47;;;3.10;;
36799;SDS011;22752;51.960;5.886;2022-07-21T14:35:47;5.30;;;2.92;;
36799;SDS011;22752;51.960;5.886;2022-07-21T14:38:13;4.57;;;2.60;;
36799;SDS011;22752;51.960;5.886;2022-07-21T14:40:39;3.97;;;2.58;;
36799;SDS011;22752;51.960;5.886;2022-07-21T14:43:05;5.43;;;2.92;;
36799;SDS011;22752;51.960;5.886;2022-07-21T14:45:31;5.03;;;2.72;;
36799;SDS011;22752;51.960;5.886;2022-07-21T14:47:57;5.30;;;2.78;;
36799;SDS011;22752;51.960;5.886;2022-07-21T14:50:23;3.85;;;2.78;;
36799;SDS011;22752;51.960;5.886;2022-07-21T14:52:50;2.95;;;2.63;;
36799;SDS011;22752;51.960;5.886;2022-07-21T14:55:16;4.68;;;2.25;;
36799;SDS011;22752;51.960;5.886;2022-07-21T14:57:42;3.05;;;2.00;;
36799;SDS011;22752;51.960;5.886;2022-07-21T15:00:09;3.42;;;2.80;;
36799;SDS011;22752;51.960;5.886;2022-07-21T15:02:35;3.30;;;2.10;;
36799;SDS011;22752;51.960;5.886;2022-07-21T15:05:01;5.93;;;2.10;;
36799;SDS011;22752;51.960;5.886;2022-07-21T15:07:28;2.78;;;1.95;;
36799;SDS011;22752;51.960;5.886;2022-07-21T15:09:53;5.15;;;2.20;;
36799;SDS011;22752;51.960;5.886;2022-07-21T15:12:20;3.20;;;2.28;;
36799;SDS011;22752;51.960;5.886;2022-07-21T15:14:47;2.67;;;1.95;;